sensor_id;sensor_type;location;lat;lon;timestamp;P1;durP1;ratioP1;P2;durP2;ratioP2
25563;SDS011;13453;47.994;8.790;2022-10-16T00:04:37;0.80;;;0.50;;
25563;SDS011;13453;47.994;8.790;2022-10-16T00:14:39;0.88;;;0.60;;
25563;SDS011;13453;47.994;8.790;2022-10-16T00:24:43;0.70;;;0.60;;
25563;SDS011;13453;47.994;8.790;2022-10-16T00:34:45;0.50;;;0.50;;
25563;SDS011;13453;47.994;8.790;2022-10-16T00:44:51;0.52;;;0.50;;
25563;SDS011;13453;47.994;8.790;2022-10-16T00:54:55;0.63;;;0.50;;
25563;SDS011;13453;47.994;8.790;2022-10-16T01:04:58;1.08;;;0.68;;
25563;SDS011;13453;47.994;8.790;2022-10-16T01:35:45;0.60;;;0.60;;
25563;SDS011;13453;47.994;8.790;2022-10-16T01:46:03;0.75;;;0.65;;
25563;SDS011;13453;47.994;8.790;2022-10-16T01:56:08;0.85;;;0.50;;
25563;SDS011;13453;47.994;8.790;2022-10-16T02:06:13;0.85;;;0.60;;
25563;SDS011;13453;47.994;8.790;2022-10-16T02:16:15;0.85;;;0.60;;
25563;SDS011;13453;47.994;8.790;2022-10-16T02:26:18;0.88;;;0.77;;
25563;SDS011;13453;47.994;8.790;2022-10-16T02:36:26;0.95;;;0.60;;
25563;SDS011;13453;47.994;8.790;2022-10-16T02:46:28;0.95;;;0.63;;
25563;SDS011;13453;47.994;8.790;2022-10-16T02:56:30;0.88;;;0.63;;
25563;SDS011;13453;47.994;8.790;2022-10-16T03:06:32;0.60;;;0.60;;
25563;SDS011;13453;47.994;8.790;2022-10-16T03:16:34;0.70;;;0.60;;
25563;SDS011;13453;47.994;8.790;2022-10-16T03:26:35;0.60;;;0.60;;
25563;SDS011;13453;47.994;8.790;2022-10-16T03:36:37;0.98;;;0.68;;
25563;SDS011;13453;47.994;8.790;2022-10-16T03:46:39;1.05;;;0.80;;
25563;SDS011;13453;47.994;8.790;2022-10-16T03:56:41;0.60;;;0.60;;
25563;SDS011;13453;47.994;8.790;2022-10-16T04:06:43;0.70;;;0.60;;
25563;SDS011;13453;47.994;8.790;2022-10-16T04:16:45;0.90;;;0.80;;
25563;SDS011;13453;47.994;8.790;2022-10-16T04:26:46;0.80;;;0.50;;
25563;SDS011;13453;47.994;8.790;2022-10-16T04:36:48;0.63;;;0.57;;
25563;SDS011;13453;47.994;8.790;2022-10-16T04:46:50;0.63;;;0.60;;
25563;SDS011;13453;47.994;8.790;2022-10-16T04:56:52;0.90;;;0.60;;
25563;SDS011;13453;47.994;8.790;2022-10-16T05:06:54;0.63;;;0.50;;
25563;SDS011;13453;47.994;8.790;2022-10-16T05:16:56;0.70;;;0.52;;
25563;SDS011;13453;47.994;8.790;2022-10-16T05:26:58;0.52;;;0.50;;
25563;SDS011;13453;47.994;8.790;2022-10-16T05:37:00;0.50;;;0.47;;
25563;SDS011;13453;47.994;8.790;2022-10-16T05:47:01;0.73;;;0.50;;
25563;SDS011;13453;47.994;8.790;2022-10-16T05:57:03;0.50;;;0.45;;
25563;SDS011;13453;47.994;8.790;2022-10-16T06:07:06;0.82;;;0.68;;
25563;SDS011;13453;47.994;8.790;2022-10-16T06:17:08;0.40;;;0.38;;
25563;SDS011;13453;47.994;8.790;2022-10-16T06:27:10;0.57;;;0.50;;
25563;SDS011;13453;47.994;8.790;2022-10-16T06:37:12;0.80;;;0.60;;
25563;SDS011;13453;47.994;8.790;2022-10-16T06:47:14;0.82;;;0.47;;
25563;SDS011;13453;47.994;8.790;2022-10-16T06:57:16;0.60;;;0.50;;
25563;SDS011;13453;47.994;8.790;2022-10-16T07:07:17;0.82;;;0.63;;
25563;SDS011;13453;47.994;8.790;2022-10-16T07:17:19;0.80;;;0.60;;
25563;SDS011;13453;47.994;8.790;2022-10-16T07:27:21;0.98;;;0.60;;
25563;SDS011;13453;47.994;8.790;2022-10-16T07:37:25;0.80;;;0.60;;
25563;SDS011;13453;47.994;8.790;2022-10-16T07:47:27;0.65;;;0.65;;
25563;SDS011;13453;47.994;8.790;2022-10-16T07:57:30;0.82;;;0.70;;
25563;SDS011;13453;47.994;8.790;2022-10-16T08:07:32;0.65;;;0.60;;
25563;SDS011;13453;47.994;8.790;2022-10-16T08:17:34;0.75;;;0.60;;
25563;SDS011;13453;47.994;8.790;2022-10-16T08:27:36;1.13;;;0.73;;
25563;SDS011;13453;47.994;8.790;2022-10-16T08:37:38;1.15;;;0.70;;
25563;SDS011;13453;47.994;8.790;2022-10-16T08:58:31;1.30;;;0.88;;
25563;SDS011;13453;47.994;8.790;2022-10-16T09:19:01;1.05;;;0.80;;
25563;SDS011;13453;47.994;8.790;2022-10-16T09:29:23;1.20;;;0.90;;
25563;SDS011;13453;47.994;8.790;2022-10-16T09:39:26;0.73;;;0.70;;
25563;SDS011;13453;47.994;8.790;2022-10-16T09:49:28;0.98;;;0.70;;
25563;SDS011;13453;47.994;8.790;2022-10-16T09:59:30;1.25;;;0.70;;
25563;SDS011;13453;47.994;8.790;2022-10-16T10:09:39;0.70;;;0.70;;
25563;SDS011;13453;47.994;8.790;2022-10-16T10:19:53;2.13;;;0.70;;
25563;SDS011;13453;47.994;8.790;2022-10-16T10:30:02;6.55;;;1.05;;
25563;SDS011;13453;47.994;8.790;2022-10-16T10:50:38;0.80;;;0.60;;
25563;SDS011;13453;47.994;8.790;2022-10-16T11:11:20;0.57;;;0.47;;
25563;SDS011;13453;47.994;8.790;2022-10-16T11:21:35;0.50;;;0.50;;
25563;SDS011;13453;47.994;8.790;2022-10-16T11:31:47;0.50;;;0.50;;
25563;SDS011;13453;47.994;8.790;2022-10-16T11:52:25;0.50;;;0.50;;
25563;SDS011;13453;47.994;8.790;2022-10-16T12:23:31;1.75;;;0.70;;
25563;SDS011;13453;47.994;8.790;2022-10-16T12:33:58;0.50;;;0.40;;
25563;SDS011;13453;47.994;8.790;2022-10-16T12:44:03;0.47;;;0.40;;
25563;SDS011;13453;47.994;8.790;2022-10-16T12:54:12;0.60;;;0.47;;
25563;SDS011;13453;47.994;8.790;2022-10-16T13:14:45;0.75;;;0.60;;
25563;SDS011;13453;47.994;8.790;2022-10-16T13:35:27;0.50;;;0.50;;
25563;SDS011;13453;47.994;8.790;2022-10-16T13:45:33;0.60;;;0.50;;
25563;SDS011;13453;47.994;8.790;2022-10-16T13:55:35;0.40;;;0.40;;
25563;SDS011;13453;47.994;8.790;2022-10-16T14:05:42;0.50;;;0.50;;
25563;SDS011;13453;47.994;8.790;2022-10-16T14:15:49;0.70;;;0.47;;
25563;SDS011;13453;47.994;8.790;2022-10-16T14:25:53;0.70;;;0.50;;
25563;SDS011;13453;47.994;8.790;2022-10-16T14:46:15;0.38;;;0.32;;
25563;SDS011;13453;47.994;8.790;2022-10-16T14:56:25;0.40;;;0.40;;
25563;SDS011;13453;47.994;8.790;2022-10-16T15:06:33;0.73;;;0.40;;
25563;SDS011;13453;47.994;8.790;2022-10-16T15:16:35;0.82;;;0.40;;
25563;SDS011;13453;47.994;8.790;2022-10-16T15:26:37;4.25;;;0.70;;
25563;SDS011;13453;47.994;8.790;2022-10-16T15:36:39;1.95;;;0.85;;
25563;SDS011;13453;47.994;8.790;2022-10-16T15:46:41;28.05;;;6.88;;
25563;SDS011;13453;47.994;8.790;2022-10-16T15:56:43;31.33;;;9.93;;
25563;SDS011;13453;47.994;8.790;2022-10-16T16:06:46;29.08;;;8.52;;
25563;SDS011;13453;47.994;8.790;2022-10-16T16:16:48;22.75;;;6.68;;
25563;SDS011;13453;47.994;8.790;2022-10-16T16:26:50;19.85;;;5.78;;
25563;SDS011;13453;47.994;8.790;2022-10-16T16:36:52;14.65;;;5.00;;
25563;SDS011;13453;47.994;8.790;2022-10-16T16:46:54;19.63;;;4.70;;
25563;SDS011;13453;47.994;8.790;2022-10-16T16:56:56;11.45;;;3.63;;
25563;SDS011;13453;47.994;8.790;2022-10-16T17:06:58;4.68;;;1.75;;
25563;SDS011;13453;47.994;8.790;2022-10-16T17:17:00;6.55;;;1.77;;
25563;SDS011;13453;47.994;8.790;2022-10-16T17:27:02;6.40;;;1.48;;
25563;SDS011;13453;47.994;8.790;2022-10-16T17:37:04;3.83;;;1.50;;
25563;SDS011;13453;47.994;8.790;2022-10-16T17:47:06;3.30;;;1.30;;
25563;SDS011;13453;47.994;8.790;2022-10-16T17:57:08;2.35;;;1.13;;
25563;SDS011;13453;47.994;8.790;2022-10-16T18:07:09;4.13;;;1.33;;
25563;SDS011;13453;47.994;8.790;2022-10-16T18:17:11;2.30;;;0.82;;
25563;SDS011;13453;47.994;8.790;2022-10-16T18:27:13;1.50;;;1.05;;
25563;SDS011;13453;47.994;8.790;2022-10-16T18:37:15;2.95;;;1.30;;
25563;SDS011;13453;47.994;8.790;2022-10-16T18:47:18;3.70;;;1.50;;
25563;SDS011;13453;47.994;8.790;2022-10-16T18:57:20;2.30;;;1.40;;
25563;SDS011;13453;47.994;8.790;2022-10-16T19:07:22;3.30;;;1.48;;
25563;SDS011;13453;47.994;8.790;2022-10-16T19:17:24;2.08;;;1.42;;
25563;SDS011;13453;47.994;8.790;2022-10-16T19:27:25;1.83;;;1.50;;
25563;SDS011;13453;47.994;8.790;2022-10-16T19:37:27;2.20;;;1.27;;
25563;SDS011;13453;47.994;8.790;2022-10-16T19:47:30;2.08;;;1.50;;
25563;SDS011;13453;47.994;8.790;2022-10-16T19:57:32;1.83;;;1.33;;
25563;SDS011;13453;47.994;8.790;2022-10-16T20:07:36;1.73;;;1.17;;
25563;SDS011;13453;47.994;8.790;2022-10-16T20:17:38;2.35;;;1.40;;
25563;SDS011;13453;47.994;8.790;2022-10-16T20:27:41;7.22;;;1.27;;
25563;SDS011;13453;47.994;8.790;2022-10-16T20:37:43;2.13;;;1.30;;
25563;SDS011;13453;47.994;8.790;2022-10-16T20:47:49;2.72;;;1.35;;
25563;SDS011;13453;47.994;8.790;2022-10-16T20:57:50;2.75;;;1.35;;
25563;SDS011;13453;47.994;8.790;2022-10-16T21:07:53;4.30;;;1.35;;
25563;SDS011;13453;47.994;8.790;2022-10-16T21:17:55;2.35;;;1.15;;
25563;SDS011;13453;47.994;8.790;2022-10-16T21:27:57;1.80;;;1.38;;
25563;SDS011;13453;47.994;8.790;2022-10-16T21:37:59;1.98;;;1.45;;
25563;SDS011;13453;47.994;8.790;2022-10-16T21:48:01;1.85;;;1.38;;
25563;SDS011;13453;47.994;8.790;2022-10-16T21:58:03;2.10;;;1.20;;
25563;SDS011;13453;47.994;8.790;2022-10-16T22:08:05;1.92;;;1.30;;
25563;SDS011;13453;47.994;8.790;2022-10-16T22:18:07;1.40;;;1.10;;
25563;SDS011;13453;47.994;8.790;2022-10-16T22:28:09;1.67;;;1.00;;
25563;SDS011;13453;47.994;8.790;2022-10-16T22:38:11;1.63;;;1.02;;
25563;SDS011;13453;47.994;8.790;2022-10-16T22:48:13;1.67;;;1.00;;
25563;SDS011;13453;47.994;8.790;2022-10-16T22:58:15;1.30;;;0.90;;
25563;SDS011;13453;47.994;8.790;2022-10-16T23:08:16;1.33;;;0.90;;
25563;SDS011;13453;47.994;8.790;2022-10-16T23:18:18;1.52;;;0.88;;
25563;SDS011;13453;47.994;8.790;2022-10-16T23:28:20;1.40;;;1.02;;
25563;SDS011;13453;47.994;8.790;2022-10-16T23:38:22;1.42;;;1.13;;
25563;SDS011;13453;47.994;8.790;2022-10-16T23:48:24;1.00;;;0.90;;
25563;SDS011;13453;47.994;8.790;2022-10-16T23:58:26;1.38;;;0.90;;
